Forside
METAR-TAF:

METAR-TAF

Lufthavne :

Rarotonga, Cookøerne

Breddekreds: 21-12S, længdekreds: 159-49W, højde: 7 m

Aktuelle vejr

Denne rapport blev lavet for 28 minutter siden, kl. 09:00 UTC
Vind 2 kt fra sydsydøst
Temperatur 21°C
Fugtighed 94%
Tryk 1015 hPa
Sigt 10 km eller mere
Nogle få skyer i en højde af 3000 ft

METAR: NCRG 230900Z 16002KT 9999 FEW030 21/20 Q1015 RMK DEW

Tid: 23:28 (09:28 UTC)

Vejrudsigter

Denne rapport blev lavet for 4 timer og 6 minutter siden, kl. 05:22 UTC
Foreløbig gælder fra 23 på 06 UTC til 24 på 06 UTC
Vind 6 kt fra sydsydøst
Sigt 10 km eller mere
Nogle få skyer i en højde af 1800 ft
Brudte skyer i en højde af 3000 ft

TAF: NCRG 230522Z 2306/2406 16006KT 9999 FEW018 BKN030

Vejrobservationer og prognoser fra mere end 4000 lufthavne (METAR og TAF).

De gule og røde prikker repræsenterer de meteorologiske stationer.

Flyt musen over at se navnet på stationen.

Så klik over at se vejr observationer og prognoser.

At skifte det kort: Klik på de grønne knapper med et sort kors for at zoome ind; på den grønne knap med en bindestreg for at zoome ud; eller på de grønne pile for tilstødende kort.


METAR-TAF: